sensor_id;sensor_type;location;lat;lon;timestamp;temperature;humidity
8988;DHT22;4529;51.360;12.474;2023-06-24T00:04:54;18.40;99.90
8988;DHT22;4529;51.360;12.474;2023-06-24T00:09:58;18.40;99.90
8988;DHT22;4529;51.360;12.474;2023-06-24T00:15:02;18.40;99.90
8988;DHT22;4529;51.360;12.474;2023-06-24T00:20:06;18.40;99.90
8988;DHT22;4529;51.360;12.474;2023-06-24T00:25:09;18.30;99.90
8988;DHT22;4529;51.360;12.474;2023-06-24T00:30:13;18.30;99.90
8988;DHT22;4529;51.360;12.474;2023-06-24T00:35:17;18.20;99.90
8988;DHT22;4529;51.360;12.474;2023-06-24T00:40:20;18.20;99.90
8988;DHT22;4529;51.360;12.474;2023-06-24T00:45:24;18.20;99.90
8988;DHT22;4529;51.360;12.474;2023-06-24T00:50:28;18.20;99.90
8988;DHT22;4529;51.360;12.474;2023-06-24T00:55:31;18.10;99.90
8988;DHT22;4529;51.360;12.474;2023-06-24T01:00:35;18.10;99.90
8988;DHT22;4529;51.360;12.474;2023-06-24T01:05:38;18.10;99.90
8988;DHT22;4529;51.360;12.474;2023-06-24T01:10:42;18.10;99.90
8988;DHT22;4529;51.360;12.474;2023-06-24T01:15:45;18.10;99.90
8988;DHT22;4529;51.360;12.474;2023-06-24T01:21:31;18.00;99.90
8988;DHT22;4529;51.360;12.474;2023-06-24T01:32:34;17.90;99.90
8988;DHT22;4529;51.360;12.474;2023-06-24T01:37:44;17.90;99.90
8988;DHT22;4529;51.360;12.474;2023-06-24T01:42:46;17.90;99.90
8988;DHT22;4529;51.360;12.474;2023-06-24T01:47:50;17.80;99.90
8988;DHT22;4529;51.360;12.474;2023-06-24T01:52:53;17.80;99.90
8988;DHT22;4529;51.360;12.474;2023-06-24T01:57:56;17.70;99.90
8988;DHT22;4529;51.360;12.474;2023-06-24T02:03:00;17.60;99.90
8988;DHT22;4529;51.360;12.474;2023-06-24T02:08:04;17.60;99.90
8988;DHT22;4529;51.360;12.474;2023-06-24T02:13:08;17.60;99.90
8988;DHT22;4529;51.360;12.474;2023-06-24T02:18:11;17.50;99.90
8988;DHT22;4529;51.360;12.474;2023-06-24T02:23:15;17.50;99.90
8988;DHT22;4529;51.360;12.474;2023-06-24T02:28:18;17.50;99.90
8988;DHT22;4529;51.360;12.474;2023-06-24T02:33:22;17.50;99.90
8988;DHT22;4529;51.360;12.474;2023-06-24T02:38:25;17.40;99.90
8988;DHT22;4529;51.360;12.474;2023-06-24T02:43:29;17.40;99.90
8988;DHT22;4529;51.360;12.474;2023-06-24T02:48:32;17.40;99.90
8988;DHT22;4529;51.360;12.474;2023-06-24T02:53:38;17.30;99.90
8988;DHT22;4529;51.360;12.474;2023-06-24T02:58:42;17.30;99.90
8988;DHT22;4529;51.360;12.474;2023-06-24T03:03:45;17.20;99.90
8988;DHT22;4529;51.360;12.474;2023-06-24T03:08:49;17.20;99.90
8988;DHT22;4529;51.360;12.474;2023-06-24T03:13:52;17.10;99.90
8988;DHT22;4529;51.360;12.474;2023-06-24T03:18:55;17.10;99.90
8988;DHT22;4529;51.360;12.474;2023-06-24T03:23:59;17.10;99.90
8988;DHT22;4529;51.360;12.474;2023-06-24T03:29:02;17.10;99.90
8988;DHT22;4529;51.360;12.474;2023-06-24T03:34:07;17.10;99.90
8988;DHT22;4529;51.360;12.474;2023-06-24T03:39:11;17.10;99.90
8988;DHT22;4529;51.360;12.474;2023-06-24T03:44:15;17.00;99.90
8988;DHT22;4529;51.360;12.474;2023-06-24T03:49:18;17.00;99.90
8988;DHT22;4529;51.360;12.474;2023-06-24T03:54:22;17.00;99.90
8988;DHT22;4529;51.360;12.474;2023-06-24T03:59:25;17.10;99.90
8988;DHT22;4529;51.360;12.474;2023-06-24T04:04:29;17.00;99.90
8988;DHT22;4529;51.360;12.474;2023-06-24T04:09:35;17.00;99.90
8988;DHT22;4529;51.360;12.474;2023-06-24T04:14:38;16.90;99.90
8988;DHT22;4529;51.360;12.474;2023-06-24T04:19:42;16.80;99.90
8988;DHT22;4529;51.360;12.474;2023-06-24T04:24:45;16.60;99.90
8988;DHT22;4529;51.360;12.474;2023-06-24T04:29:49;16.60;99.90
8988;DHT22;4529;51.360;12.474;2023-06-24T04:34:52;16.60;99.90
8988;DHT22;4529;51.360;12.474;2023-06-24T04:39:56;16.70;99.90
8988;DHT22;4529;51.360;12.474;2023-06-24T04:45:00;17.00;99.90
8988;DHT22;4529;51.360;12.474;2023-06-24T04:50:04;17.10;99.90
8988;DHT22;4529;51.360;12.474;2023-06-24T04:55:08;17.10;99.90
8988;DHT22;4529;51.360;12.474;2023-06-24T05:00:11;17.30;99.90
8988;DHT22;4529;51.360;12.474;2023-06-24T05:05:15;17.40;99.90
8988;DHT22;4529;51.360;12.474;2023-06-24T05:10:18;17.50;99.90
8988;DHT22;4529;51.360;12.474;2023-06-24T05:15:22;17.60;99.90
8988;DHT22;4529;51.360;12.474;2023-06-24T05:20:26;17.80;99.90
8988;DHT22;4529;51.360;12.474;2023-06-24T05:25:30;17.90;99.90
8988;DHT22;4529;51.360;12.474;2023-06-24T05:30:34;18.00;99.90
8988;DHT22;4529;51.360;12.474;2023-06-24T05:35:38;18.00;99.90
8988;DHT22;4529;51.360;12.474;2023-06-24T05:40:42;18.00;99.90
8988;DHT22;4529;51.360;12.474;2023-06-24T05:45:45;18.00;99.90
8988;DHT22;4529;51.360;12.474;2023-06-24T05:50:48;17.90;99.90
8988;DHT22;4529;51.360;12.474;2023-06-24T05:55:52;18.00;99.90
8988;DHT22;4529;51.360;12.474;2023-06-24T06:00:55;18.00;99.90
8988;DHT22;4529;51.360;12.474;2023-06-24T06:05:59;18.00;99.90
8988;DHT22;4529;51.360;12.474;2023-06-24T06:11:02;18.10;99.90
8988;DHT22;4529;51.360;12.474;2023-06-24T06:16:06;18.20;99.90
8988;DHT22;4529;51.360;12.474;2023-06-24T06:21:09;18.30;99.90
8988;DHT22;4529;51.360;12.474;2023-06-24T06:26:13;18.60;99.90
8988;DHT22;4529;51.360;12.474;2023-06-24T06:31:16;18.50;99.90
8988;DHT22;4529;51.360;12.474;2023-06-24T06:36:20;18.10;99.90
8988;DHT22;4529;51.360;12.474;2023-06-24T06:41:24;18.40;99.90
8988;DHT22;4529;51.360;12.474;2023-06-24T06:46:29;18.60;99.90
8988;DHT22;4529;51.360;12.474;2023-06-24T06:51:33;18.60;99.90
8988;DHT22;4529;51.360;12.474;2023-06-24T06:56:37;18.40;99.90
8988;DHT22;4529;51.360;12.474;2023-06-24T07:01:41;18.40;99.90
8988;DHT22;4529;51.360;12.474;2023-06-24T07:06:44;18.40;99.90
8988;DHT22;4529;51.360;12.474;2023-06-24T07:11:48;18.50;99.90
8988;DHT22;4529;51.360;12.474;2023-06-24T07:16:51;18.60;99.90
8988;DHT22;4529;51.360;12.474;2023-06-24T07:21:55;19.20;99.90
8988;DHT22;4529;51.360;12.474;2023-06-24T07:26:58;19.90;99.90
8988;DHT22;4529;51.360;12.474;2023-06-24T07:32:02;20.10;99.90
8988;DHT22;4529;51.360;12.474;2023-06-24T07:37:05;20.10;99.90
8988;DHT22;4529;51.360;12.474;2023-06-24T07:42:09;20.10;99.90
8988;DHT22;4529;51.360;12.474;2023-06-24T07:47:12;20.40;99.90
8988;DHT22;4529;51.360;12.474;2023-06-24T07:52:16;20.20;99.90
8988;DHT22;4529;51.360;12.474;2023-06-24T07:57:19;20.70;99.90
8988;DHT22;4529;51.360;12.474;2023-06-24T08:02:23;20.90;99.90
8988;DHT22;4529;51.360;12.474;2023-06-24T08:07:26;20.80;99.90
8988;DHT22;4529;51.360;12.474;2023-06-24T08:12:30;21.10;99.90
8988;DHT22;4529;51.360;12.474;2023-06-24T08:17:33;21.40;99.90
8988;DHT22;4529;51.360;12.474;2023-06-24T08:22:36;21.10;99.90
8988;DHT22;4529;51.360;12.474;2023-06-24T08:27:40;21.10;99.90
8988;DHT22;4529;51.360;12.474;2023-06-24T08:32:44;22.00;99.90
8988;DHT22;4529;51.360;12.474;2023-06-24T08:37:48;21.70;99.90
8988;DHT22;4529;51.360;12.474;2023-06-24T08:42:52;21.40;99.90
8988;DHT22;4529;51.360;12.474;2023-06-24T08:47:56;21.80;99.90
8988;DHT22;4529;51.360;12.474;2023-06-24T08:53:01;22.00;99.90
8988;DHT22;4529;51.360;12.474;2023-06-24T08:58:05;22.10;99.90
8988;DHT22;4529;51.360;12.474;2023-06-24T09:03:09;22.40;99.90
8988;DHT22;4529;51.360;12.474;2023-06-24T09:08:13;22.30;99.90
8988;DHT22;4529;51.360;12.474;2023-06-24T09:13:17;22.30;99.90
8988;DHT22;4529;51.360;12.474;2023-06-24T09:18:21;22.60;99.90
8988;DHT22;4529;51.360;12.474;2023-06-24T09:23:25;22.50;99.90
8988;DHT22;4529;51.360;12.474;2023-06-24T09:28:28;22.80;99.90
8988;DHT22;4529;51.360;12.474;2023-06-24T09:33:32;22.60;99.90
8988;DHT22;4529;51.360;12.474;2023-06-24T09:38:36;22.70;99.90
8988;DHT22;4529;51.360;12.474;2023-06-24T09:43:39;22.80;99.90
8988;DHT22;4529;51.360;12.474;2023-06-24T09:48:42;22.70;99.90
8988;DHT22;4529;51.360;12.474;2023-06-24T09:53:45;22.90;99.90
8988;DHT22;4529;51.360;12.474;2023-06-24T09:58:49;23.10;99.90
8988;DHT22;4529;51.360;12.474;2023-06-24T10:03:52;23.20;99.90
8988;DHT22;4529;51.360;12.474;2023-06-24T10:08:56;23.30;99.90
8988;DHT22;4529;51.360;12.474;2023-06-24T10:13:59;23.40;99.90
8988;DHT22;4529;51.360;12.474;2023-06-24T10:19:03;23.30;99.90
8988;DHT22;4529;51.360;12.474;2023-06-24T10:24:06;23.40;99.90
8988;DHT22;4529;51.360;12.474;2023-06-24T10:29:11;23.30;99.90
8988;DHT22;4529;51.360;12.474;2023-06-24T10:39:39;23.40;99.90
8988;DHT22;4529;51.360;12.474;2023-06-24T10:44:48;23.40;99.90
8988;DHT22;4529;51.360;12.474;2023-06-24T10:49:51;23.40;99.90
8988;DHT22;4529;51.360;12.474;2023-06-24T10:54:56;23.50;99.90
8988;DHT22;4529;51.360;12.474;2023-06-24T10:59:58;23.70;99.90
8988;DHT22;4529;51.360;12.474;2023-06-24T11:05:02;23.70;99.90
8988;DHT22;4529;51.360;12.474;2023-06-24T11:10:06;24.00;99.90
8988;DHT22;4529;51.360;12.474;2023-06-24T11:15:12;24.00;99.90
8988;DHT22;4529;51.360;12.474;2023-06-24T11:20:15;24.10;99.90
8988;DHT22;4529;51.360;12.474;2023-06-24T11:25:21;24.00;99.90
8988;DHT22;4529;51.360;12.474;2023-06-24T11:30:33;23.90;99.90
8988;DHT22;4529;51.360;12.474;2023-06-24T11:35:33;24.20;99.90
8988;DHT22;4529;51.360;12.474;2023-06-24T11:40:36;23.90;99.90
8988;DHT22;4529;51.360;12.474;2023-06-24T11:45:39;24.20;99.90
8988;DHT22;4529;51.360;12.474;2023-06-24T11:50:43;24.50;99.90
8988;DHT22;4529;51.360;12.474;2023-06-24T11:55:46;24.60;99.90
8988;DHT22;4529;51.360;12.474;2023-06-24T12:00:50;24.80;99.90
8988;DHT22;4529;51.360;12.474;2023-06-24T12:05:54;24.60;99.90
8988;DHT22;4529;51.360;12.474;2023-06-24T12:10:58;24.50;99.90
8988;DHT22;4529;51.360;12.474;2023-06-24T12:16:02;24.60;99.90
8988;DHT22;4529;51.360;12.474;2023-06-24T12:21:06;24.60;99.90
8988;DHT22;4529;51.360;12.474;2023-06-24T12:26:11;24.60;99.90
8988;DHT22;4529;51.360;12.474;2023-06-24T12:31:15;24.80;99.90
8988;DHT22;4529;51.360;12.474;2023-06-24T12:36:19;24.80;99.90
8988;DHT22;4529;51.360;12.474;2023-06-24T12:41:22;24.80;99.90
8988;DHT22;4529;51.360;12.474;2023-06-24T12:46:26;24.90;99.90
8988;DHT22;4529;51.360;12.474;2023-06-24T12:51:29;24.90;99.90
8988;DHT22;4529;51.360;12.474;2023-06-24T12:56:33;25.00;99.90
8988;DHT22;4529;51.360;12.474;2023-06-24T13:01:36;25.00;99.90
8988;DHT22;4529;51.360;12.474;2023-06-24T13:06:40;24.90;99.90
8988;DHT22;4529;51.360;12.474;2023-06-24T13:11:43;25.20;99.90
8988;DHT22;4529;51.360;12.474;2023-06-24T13:16:46;25.40;99.90
8988;DHT22;4529;51.360;12.474;2023-06-24T13:21:50;25.20;99.90
8988;DHT22;4529;51.360;12.474;2023-06-24T13:26:54;25.30;99.90
8988;DHT22;4529;51.360;12.474;2023-06-24T13:31:58;25.10;99.90
8988;DHT22;4529;51.360;12.474;2023-06-24T13:37:02;25.30;99.90
8988;DHT22;4529;51.360;12.474;2023-06-24T13:42:07;25.30;99.90
8988;DHT22;4529;51.360;12.474;2023-06-24T13:47:10;25.30;99.90
8988;DHT22;4529;51.360;12.474;2023-06-24T13:52:13;25.20;99.90
8988;DHT22;4529;51.360;12.474;2023-06-24T13:57:17;25.30;99.90
8988;DHT22;4529;51.360;12.474;2023-06-24T14:02:20;25.20;99.90
8988;DHT22;4529;51.360;12.474;2023-06-24T14:07:24;25.20;99.90
8988;DHT22;4529;51.360;12.474;2023-06-24T14:12:27;25.40;99.90
8988;DHT22;4529;51.360;12.474;2023-06-24T14:17:31;25.30;99.90
8988;DHT22;4529;51.360;12.474;2023-06-24T14:22:34;25.40;99.90
8988;DHT22;4529;51.360;12.474;2023-06-24T14:27:38;25.30;99.90
8988;DHT22;4529;51.360;12.474;2023-06-24T14:32:41;25.40;99.90
8988;DHT22;4529;51.360;12.474;2023-06-24T14:37:45;25.30;99.90
8988;DHT22;4529;51.360;12.474;2023-06-24T14:42:48;25.30;99.90
8988;DHT22;4529;51.360;12.474;2023-06-24T14:47:52;25.40;99.90
8988;DHT22;4529;51.360;12.474;2023-06-24T14:52:55;25.30;99.90
8988;DHT22;4529;51.360;12.474;2023-06-24T14:57:59;25.20;99.90
8988;DHT22;4529;51.360;12.474;2023-06-24T15:03:03;25.20;99.90
8988;DHT22;4529;51.360;12.474;2023-06-24T15:08:07;25.20;99.90
8988;DHT22;4529;51.360;12.474;2023-06-24T15:13:11;25.20;99.90
8988;DHT22;4529;51.360;12.474;2023-06-24T15:18:15;25.30;99.90
8988;DHT22;4529;51.360;12.474;2023-06-24T15:23:19;25.30;99.90
8988;DHT22;4529;51.360;12.474;2023-06-24T15:28:23;25.30;99.90
8988;DHT22;4529;51.360;12.474;2023-06-24T15:33:27;25.40;99.90
8988;DHT22;4529;51.360;12.474;2023-06-24T15:38:31;25.40;99.90
8988;DHT22;4529;51.360;12.474;2023-06-24T15:43:34;25.40;99.90
8988;DHT22;4529;51.360;12.474;2023-06-24T15:48:38;25.30;99.90
8988;DHT22;4529;51.360;12.474;2023-06-24T15:53:41;25.20;99.90
8988;DHT22;4529;51.360;12.474;2023-06-24T15:58:45;25.20;99.90
8988;DHT22;4529;51.360;12.474;2023-06-24T16:03:48;25.10;99.90
8988;DHT22;4529;51.360;12.474;2023-06-24T16:08:52;25.10;99.90
8988;DHT22;4529;51.360;12.474;2023-06-24T16:13:55;25.10;99.90
8988;DHT22;4529;51.360;12.474;2023-06-24T16:18:59;25.10;99.90
8988;DHT22;4529;51.360;12.474;2023-06-24T16:24:02;25.00;99.90
8988;DHT22;4529;51.360;12.474;2023-06-24T16:29:06;25.00;99.90
8988;DHT22;4529;51.360;12.474;2023-06-24T16:34:09;25.00;99.90
8988;DHT22;4529;51.360;12.474;2023-06-24T16:39:12;25.00;99.90
8988;DHT22;4529;51.360;12.474;2023-06-24T16:44:16;25.10;99.90
8988;DHT22;4529;51.360;12.474;2023-06-24T16:49:19;25.10;99.90
8988;DHT22;4529;51.360;12.474;2023-06-24T16:54:24;25.20;99.90
8988;DHT22;4529;51.360;12.474;2023-06-24T16:59:28;25.10;99.90
8988;DHT22;4529;51.360;12.474;2023-06-24T17:04:32;25.00;99.90
8988;DHT22;4529;51.360;12.474;2023-06-24T17:09:36;25.00;99.90
8988;DHT22;4529;51.360;12.474;2023-06-24T17:14:40;24.90;99.90
8988;DHT22;4529;51.360;12.474;2023-06-24T17:19:44;25.00;99.90
8988;DHT22;4529;51.360;12.474;2023-06-24T17:24:47;24.90;99.90
8988;DHT22;4529;51.360;12.474;2023-06-24T17:29:54;25.00;99.90
8988;DHT22;4529;51.360;12.474;2023-06-24T17:34:54;24.70;99.90
8988;DHT22;4529;51.360;12.474;2023-06-24T17:39:57;24.50;99.90
8988;DHT22;4529;51.360;12.474;2023-06-24T17:45:01;24.40;99.90
8988;DHT22;4529;51.360;12.474;2023-06-24T17:50:05;24.30;99.90
8988;DHT22;4529;51.360;12.474;2023-06-24T17:55:08;24.10;99.90
8988;DHT22;4529;51.360;12.474;2023-06-24T18:00:12;24.10;99.90
8988;DHT22;4529;51.360;12.474;2023-06-24T18:05:15;24.10;99.90
8988;DHT22;4529;51.360;12.474;2023-06-24T18:10:18;24.00;99.90
8988;DHT22;4529;51.360;12.474;2023-06-24T18:15:22;23.90;99.90
8988;DHT22;4529;51.360;12.474;2023-06-24T18:20:25;23.70;99.90
8988;DHT22;4529;51.360;12.474;2023-06-24T18:25:29;23.60;99.90
8988;DHT22;4529;51.360;12.474;2023-06-24T18:30:34;23.50;99.90
8988;DHT22;4529;51.360;12.474;2023-06-24T18:35:38;23.30;99.90
8988;DHT22;4529;51.360;12.474;2023-06-24T18:40:42;23.30;99.90
8988;DHT22;4529;51.360;12.474;2023-06-24T18:45:46;23.20;99.90
8988;DHT22;4529;51.360;12.474;2023-06-24T18:50:50;23.00;99.90
8988;DHT22;4529;51.360;12.474;2023-06-24T18:55:54;22.80;99.90
8988;DHT22;4529;51.360;12.474;2023-06-24T19:00:58;22.40;99.90
8988;DHT22;4529;51.360;12.474;2023-06-24T19:06:03;22.00;99.90
8988;DHT22;4529;51.360;12.474;2023-06-24T19:11:06;22.10;99.90
8988;DHT22;4529;51.360;12.474;2023-06-24T19:16:09;21.80;99.90
8988;DHT22;4529;51.360;12.474;2023-06-24T19:21:13;21.60;99.90
8988;DHT22;4529;51.360;12.474;2023-06-24T19:26:16;21.40;99.90
8988;DHT22;4529;51.360;12.474;2023-06-24T19:31:20;21.20;99.90
8988;DHT22;4529;51.360;12.474;2023-06-24T19:36:23;21.00;99.90
8988;DHT22;4529;51.360;12.474;2023-06-24T19:41:27;20.80;99.90
8988;DHT22;4529;51.360;12.474;2023-06-24T19:46:30;20.60;99.90
8988;DHT22;4529;51.360;12.474;2023-06-24T19:51:34;20.50;99.90
8988;DHT22;4529;51.360;12.474;2023-06-24T19:56:37;20.30;99.90
8988;DHT22;4529;51.360;12.474;2023-06-24T20:01:41;20.20;99.90
8988;DHT22;4529;51.360;12.474;2023-06-24T20:06:44;20.10;99.90
8988;DHT22;4529;51.360;12.474;2023-06-24T20:11:48;20.00;99.90
8988;DHT22;4529;51.360;12.474;2023-06-24T20:16:51;19.90;99.90
8988;DHT22;4529;51.360;12.474;2023-06-24T20:21:54;19.70;99.90
8988;DHT22;4529;51.360;12.474;2023-06-24T20:26:58;19.60;99.90
8988;DHT22;4529;51.360;12.474;2023-06-24T20:32:01;19.50;99.90
8988;DHT22;4529;51.360;12.474;2023-06-24T20:37:05;19.40;99.90
8988;DHT22;4529;51.360;12.474;2023-06-24T20:42:08;19.20;99.90
8988;DHT22;4529;51.360;12.474;2023-06-24T20:47:12;19.20;99.90
8988;DHT22;4529;51.360;12.474;2023-06-24T20:52:15;19.10;99.90
8988;DHT22;4529;51.360;12.474;2023-06-24T20:57:19;18.90;99.90
8988;DHT22;4529;51.360;12.474;2023-06-24T21:02:22;18.80;99.90
8988;DHT22;4529;51.360;12.474;2023-06-24T21:07:26;18.80;99.90
8988;DHT22;4529;51.360;12.474;2023-06-24T21:12:29;18.70;99.90
8988;DHT22;4529;51.360;12.474;2023-06-24T21:17:33;18.50;99.90
8988;DHT22;4529;51.360;12.474;2023-06-24T21:22:37;18.40;99.90
8988;DHT22;4529;51.360;12.474;2023-06-24T21:27:42;18.40;99.90
8988;DHT22;4529;51.360;12.474;2023-06-24T21:32:46;18.40;99.90
8988;DHT22;4529;51.360;12.474;2023-06-24T21:37:50;18.30;99.90
8988;DHT22;4529;51.360;12.474;2023-06-24T21:42:54;18.20;99.90
8988;DHT22;4529;51.360;12.474;2023-06-24T21:47:57;18.20;99.90
8988;DHT22;4529;51.360;12.474;2023-06-24T21:53:01;18.30;99.90
8988;DHT22;4529;51.360;12.474;2023-06-24T21:58:04;18.10;99.90
8988;DHT22;4529;51.360;12.474;2023-06-24T22:03:08;18.10;99.90
8988;DHT22;4529;51.360;12.474;2023-06-24T22:08:11;18.20;99.90
8988;DHT22;4529;51.360;12.474;2023-06-24T22:13:15;18.20;99.90
8988;DHT22;4529;51.360;12.474;2023-06-24T22:18:18;18.20;99.90
8988;DHT22;4529;51.360;12.474;2023-06-24T22:23:22;18.20;99.90
8988;DHT22;4529;51.360;12.474;2023-06-24T22:28:25;18.20;99.90
8988;DHT22;4529;51.360;12.474;2023-06-24T22:33:29;18.10;99.90
8988;DHT22;4529;51.360;12.474;2023-06-24T22:38:32;18.00;99.90
8988;DHT22;4529;51.360;12.474;2023-06-24T22:43:36;17.90;99.90
8988;DHT22;4529;51.360;12.474;2023-06-24T22:48:39;17.90;99.90
8988;DHT22;4529;51.360;12.474;2023-06-24T22:53:43;17.80;99.90
8988;DHT22;4529;51.360;12.474;2023-06-24T22:58:47;17.80;99.90
8988;DHT22;4529;51.360;12.474;2023-06-24T23:03:52;17.80;99.90
8988;DHT22;4529;51.360;12.474;2023-06-24T23:08:55;17.80;99.90
8988;DHT22;4529;51.360;12.474;2023-06-24T23:13:58;17.70;99.90
8988;DHT22;4529;51.360;12.474;2023-06-24T23:19:02;17.60;99.90
8988;DHT22;4529;51.360;12.474;2023-06-24T23:24:06;17.60;99.90
8988;DHT22;4529;51.360;12.474;2023-06-24T23:29:09;17.60;99.90
8988;DHT22;4529;51.360;12.474;2023-06-24T23:34:13;17.50;99.90
8988;DHT22;4529;51.360;12.474;2023-06-24T23:39:17;17.40;99.90
8988;DHT22;4529;51.360;12.474;2023-06-24T23:44:21;17.40;99.90
8988;DHT22;4529;51.360;12.474;2023-06-24T23:49:24;17.40;99.90
8988;DHT22;4529;51.360;12.474;2023-06-24T23:54:28;17.30;99.90
8988;DHT22;4529;51.360;12.474;2023-06-24T23:59:31;17.40;99.90
